ADDS METAR Data INFO
IDs: Format: Raw Decoded Include TAF

Data at: 0345 UTC 20 Feb 2018

K20V 200330Z AUTO 31003KT 2 1/2SM -SN SCT006 BKN010 OVC021 M03/M05 A2944 RMK AO2
K20V 200312Z AUTO 00000KT 1 1/2SM -SN BKN006 OVC009 M03/M05 A2946 RMK AO2
K20V 200252Z AUTO 27007KT 2SM -SN OVC007 M03/M05 A2946 RMK AO2
K20V 200234Z AUTO 25004KT 2SM -SN BKN009 BKN014 OVC019 M02/M05 A2944 RMK AO2
K20V 200212Z AUTO 34003KT 5SM -SN SCT009 OVC016 M01/M05 A2941 RMK AO2
K20V 200154Z AUTO 34008KT 4SM -SN BKN009 BKN016 OVC025 M01/M06 A2939 RMK AO2
K20V 200130Z AUTO 34010G17KT 5SM -SN SCT011 BKN018 OVC024 M01/M05 A2937 RMK AO2
K20V 200112Z AUTO 34013G18KT 2 1/2SM -SN BKN009 BKN018 OVC024 M01/M05 A2936 RMK AO2 VIS 2V3
K20V 200054Z AUTO 33013KT 2 1/2SM -SN SCT006 BKN021 OVC031 M01/M04 A2936 RMK AO2
K20V 200030Z AUTO 33013KT 4SM -SN SCT010 SCT013 OVC019 00/M03 A2934 RMK AO2
K20V 200012Z AUTO 01010G16KT 1 1/4SM -SN BKN006 BKN010 OVC019 M01/M04 A2933 RMK AO2
K20V 192354Z AUTO 36009KT 3SM -SN SCT006 BKN017 OVC021 00/M04 A2932 RMK AO2
K20V 192330Z AUTO 26008KT 2SM -SN OVC014 02/M01 A2931 RMK AO2
K20V 192312Z AUTO 26006KT 7SM -SN SCT010 BKN020 OVC031 02/M01 A2929 RMK AO2
K20V 192253Z AUTO 28005KT 1 1/2SM -SN BKN004 OVC009 02/00 A2930 RMK AO2
K20V 192235Z AUTO 24009G23KT 1/4SM SN OVC004 01/00 A2930 RMK AO2
K20V 192212Z AUTO 24016G31KT 2SM -SN SCT004 BKN014 OVC029 03/M01 A2930 RMK AO2
K20V 192154Z AUTO 25009G17KT 204V014 10SM SCT034 SCT041 BKN047 03/M02 A2929 RMK AO2
K20V 192130Z AUTO 31006KT 10SM SCT014 SCT024 BKN038 04/00 A2928 RMK AO2
K20V 192112Z AUTO 27010G16KT 3SM -SN SCT010 BKN018 OVC034 04/00 A2930 RMK AO2
K20V 192054Z AUTO 23019G25KT 3SM -SN SCT008 BKN024 OVC043 03/00 A2931 RMK AO2
K20V 192030Z AUTO 23009G16KT 10SM SCT016 BKN029 OVC042 04/M02 A2931 RMK AO2
K20V 192012Z AUTO 27007KT 5SM -SN SCT016 BKN028 OVC060 04/M02 A2930 RMK AO2
K20V 191954Z AUTO 29003KT 10SM SCT030 SCT041 BKN060 05/M02 A2929 RMK AO2
K20V 191930Z AUTO 25008G15KT 10SM SCT028 BKN046 OVC065 05/M04 A2930 RMK AO2
K20V 191912Z AUTO 17005KT 10SM SCT028 BKN038 OVC075 05/M03 A2931 RMK AO2
K20V 191854Z AUTO 14005KT 10SM SCT014 SCT036 BKN047 05/M02 A2933 RMK AO2
K20V 191830Z AUTO 20007G15KT 2 1/2SM -SN SCT010 BKN024 OVC050 03/M01 A2935 RMK AO2
K20V 191812Z AUTO 25008G14KT 10SM SCT032 BKN050 OVC060 03/M02 A2937 RMK AO2
K20V 191754Z AUTO 27010G14KT 10SM SCT017 BKN049 OVC060 05/M02 A2937 RMK AO2
K20V 191730Z AUTO 23008KT 7SM -SN SCT017 BKN024 OVC033 03/M02 A2938 RMK AO2
K20V 191712Z AUTO 24013G20KT 7SM -SN SCT022 BKN032 OVC045 04/M03 A2939 RMK AO2
K20V 191654Z AUTO 22014G24KT 10SM SCT032 BKN038 OVC060 05/M06 A2938 RMK AO2
K20V 191630Z AUTO 24021G35KT 10SM SCT034 SCT043 BKN070 06/M08 A2939 RMK AO2
K20V 191612Z AUTO 21018G26KT 10SM SCT070 SCT080 06/M08 A2938 RMK AO2
K20V 191553Z AUTO 21018G26KT 10SM SCT060 SCT070 SCT080 06/M07 A2939 RMK AO2
K20V 191535Z AUTO 19010G19KT 10SM SCT060 SCT085 06/M05 A2939 RMK AO2
K20V 191512Z AUTO 20013G19KT 10SM SCT060 SCT085 06/M07 A2939 RMK AO2
K20V 191454Z AUTO 21010KT 10SM SCT085 05/M07 A2939 RMK AO2
K20V 191430Z AUTO 20012G18KT 10SM SCT050 SCT065 SCT085 05/M06 A2939 RMK AO2
K20V 191412Z AUTO 22012G23KT 10SM SCT060 SCT065 SCT085 05/M06 A2941 RMK AO2
K20V 191354Z AUTO 22015KT 10SM SCT085 05/M06 A2940 RMK AO2
K20V 191330Z AUTO 22010KT 10SM SCT070 SCT075 SCT085 05/M05 A2940 RMK AO2
K20V 191312Z AUTO 23008G16KT 204V274 10SM SCT055 BKN070 05/M05 A2941 RMK AO2
K20V 191254Z AUTO 23012G17KT 10SM SCT055 BKN075 BKN080 05/M04 A2942 RMK AO2
K20V 191230Z AUTO 23007KT 10SM SCT031 SCT039 SCT055 03/M02 A2941 RMK AO2
K20V 191212Z AUTO 24007KT 10SM SCT030 BKN040 OVC075 03/M01 A2943 RMK AO2
K20V 191154Z AUTO 26004KT 10SM SCT020 BKN041 OVC090 03/00 A2943 RMK AO2
K20V 191130Z AUTO 26013G17KT 10SM SCT017 BKN042 OVC050 03/00 A2944 RMK AO2
K20V 191112Z AUTO 23010G17KT 7SM -SN SCT013 BKN043 OVC055 03/M01 A2944 RMK AO2
K20V 191054Z AUTO 25012G16KT 10SM SCT015 BKN046 OVC070 03/M01 A2943 RMK AO2
K20V 191030Z AUTO 23016G23KT 10SM -SN SCT013 BKN036 OVC070 05/M02 A2943 RMK AO2
K20V 191012Z AUTO 24014G24KT 10SM SCT036 SCT048 BKN060 05/M03 A2943 RMK AO2
K20V 190954Z AUTO 23016G24KT 10SM SCT033 SCT044 BKN055 06/M03 A2944 RMK AO2
K20V 190930Z AUTO 24011G17KT 10SM SCT048 BKN060 05/M03 A2944 RMK AO2
K20V 190912Z AUTO 24014G17KT 10SM SCT024 BKN044 OVC050 05/M03 A2943 RMK AO2
K20V 190854Z AUTO 25014G25KT 10SM SCT024 SCT033 BKN046 06/M04 A2944 RMK AO2
K20V 190830Z AUTO 24009G15KT 10SM CLR 05/M06 A2944 RMK AO2
K20V 190812Z AUTO 24010G17KT 10SM SCT070 SCT100 06/M06 A2945 RMK AO2
K20V 190754Z AUTO 25010G18KT 10SM SCT070 SCT080 SCT100 06/M06 A2946 RMK AO2
K20V 190730Z AUTO 24014G24KT 10SM SCT080 SCT100 06/M07 A2947 RMK AO2
K20V 190712Z AUTO 24015G25KT 10SM CLR 07/M08 A2947 RMK AO2
K20V 190652Z AUTO 24016G25KT 10SM CLR 07/M08 A2947 RMK AO2
K20V 190635Z AUTO 24019G31KT 10SM SCT065 SCT080 SCT100 07/M08 A2948 RMK AO2
K20V 190611Z AUTO 23017G26KT 10SM SCT080 SCT090 07/M08 A2948 RMK AO2
K20V 190553Z AUTO 22021G33KT 10SM CLR 07/M09 A2949 RMK AO2
K20V 190535Z AUTO 23012G23KT 10SM CLR 07/M10 A2949 RMK AO2
K20V 190511Z AUTO 22014G17KT 10SM CLR 07/M10 A2949 RMK AO2
K20V 190454Z AUTO 22014G24KT 10SM CLR 07/M09 A2949 RMK AO2
K20V 190430Z AUTO 22016G26KT 10SM CLR 07/M09 A2949 RMK AO2
K20V 190412Z AUTO 22020G31KT 10SM CLR 07/M09 A2950 RMK AO2
K20V 190354Z AUTO 21019G25KT 10SM CLR 07/M08 A2950 RMK AO2
K20V 190330Z AUTO 21018G23KT 10SM CLR 07/M08 A2951 RMK AO2
K20V 190312Z AUTO 22021G26KT 10SM CLR 07/M08 A2952 RMK AO2
K20V 190254Z AUTO 21016G20KT 10SM CLR 07/M09 A2952 RMK AO2
K20V 190230Z AUTO 21014G30KT 10SM CLR 08/M10 A2951 RMK AO2
K20V 190212Z AUTO 22018G29KT 10SM CLR 08/M10 A2952 RMK AO2
K20V 190154Z AUTO 22022G29KT 10SM CLR 08/M10 A2953 RMK AO2
K20V 190130Z AUTO 23024G36KT 10SM CLR 08/M10 A2952 RMK AO2
K20V 190112Z AUTO 23025G40KT 10SM CLR 08/M10 A2952 RMK AO2
K20V 190054Z AUTO 23020G36KT 10SM CLR 08/M10 A2952 RMK AO2
K20V 190030Z AUTO 24019G27KT 204V264 10SM CLR 08/M09 A2953 RMK AO2
K20V 190012Z AUTO 24019G33KT 10SM CLR 08/M09 A2953 RMK AO2
K20V 182354Z AUTO 23014G26KT 10SM CLR 09/M08 A2953 RMK AO2
K20V 182330Z AUTO 24013G25KT 10SM CLR 10/M08 A2953 RMK AO2
K20V 182312Z AUTO 22018G27KT 10SM SCT080 11/M08 A2953 RMK AO2
K20V 182254Z AUTO 24014G27KT 10SM SCT080 10/M07 A2954 RMK AO2
K20V 182230Z AUTO 23015G22KT 10SM SCT080 10/M08 A2954 RMK AO2
K20V 182212Z AUTO 23008G20KT 10SM CLR 10/M07 A2955 RMK AO2
K20V 182154Z AUTO 24011G24KT 10SM SCT075 10/M07 A2955 RMK AO2
K20V 182130Z AUTO 22023G33KT 10SM SCT075 10/M08 A2955 RMK AO2
K20V 182112Z AUTO 22022G31KT 10SM SCT075 10/M07 A2955 RMK AO2
K20V 182054Z AUTO 22018G25KT 10SM SCT075 10/M07 A2957 RMK AO2
K20V 182030Z AUTO 22019G28KT 10SM CLR 10/M07 A2958 RMK AO2
K20V 182012Z AUTO 22019G27KT 10SM CLR 10/M08 A2959 RMK AO2
K20V 181954Z AUTO 22020G25KT 10SM CLR 10/M07 A2961 RMK AO2
K20V 181930Z AUTO 24011G18KT 10SM SCT110 11/M07 A2963 RMK AO2
K20V 181912Z AUTO 26015G21KT 10SM SCT110 10/M07 A2964 RMK AO2
K20V 181853Z AUTO 24015G25KT 10SM SCT110 10/M07 A2966 RMK AO2
K20V 181835Z AUTO 23017G26KT 10SM CLR 10/M07 A2966 RMK AO2
K20V 181812Z AUTO 25017G25KT 10SM CLR 09/M08 A2967 RMK AO2
K20V 181753Z AUTO 26017G32KT 10SM CLR 08/M08 A2967 RMK AO2
K20V 181730Z AUTO 26015G21KT 10SM CLR 08/M08 A2967 RMK AO2
K20V 181712Z AUTO 25017G26KT 10SM CLR 07/M08 A2968 RMK AO2
K20V 181654Z AUTO 26014G21KT 10SM CLR 07/M08 A2969 RMK AO2
K20V 181630Z AUTO 26014G25KT 10SM CLR 07/M08 A2970 RMK AO2
K20V 181612Z AUTO 26021G28KT 10SM CLR 06/M09 A2971 RMK AO2
K20V 181553Z AUTO 26018G29KT 10SM CLR 06/M10 A2971 RMK AO2